sensor_id;sensor_type;location;lat;lon;timestamp;P1;durP1;ratioP1;P2;durP2;ratioP2
6292;SDS011;3179;54.350;10.102;2024-03-25T00:00:22;2.10;;;1.90;;
6292;SDS011;3179;54.350;10.102;2024-03-25T00:02:50;2.03;;;1.83;;
6292;SDS011;3179;54.350;10.102;2024-03-25T00:05:16;2.10;;;1.90;;
6292;SDS011;3179;54.350;10.102;2024-03-25T00:07:47;4.77;;;1.77;;
6292;SDS011;3179;54.350;10.102;2024-03-25T00:10:15;2.97;;;2.33;;
6292;SDS011;3179;54.350;10.102;2024-03-25T00:12:42;1.90;;;1.73;;
6292;SDS011;3179;54.350;10.102;2024-03-25T00:15:08;4.67;;;1.70;;
6292;SDS011;3179;54.350;10.102;2024-03-25T00:17:35;2.23;;;2.03;;
6292;SDS011;3179;54.350;10.102;2024-03-25T00:20:01;2.40;;;1.97;;
6292;SDS011;3179;54.350;10.102;2024-03-25T00:22:31;1.77;;;1.67;;
6292;SDS011;3179;54.350;10.102;2024-03-25T00:24:57;3.57;;;2.10;;
6292;SDS011;3179;54.350;10.102;2024-03-25T00:27:25;3.10;;;2.07;;
6292;SDS011;3179;54.350;10.102;2024-03-25T00:29:51;1.70;;;1.60;;
6292;SDS011;3179;54.350;10.102;2024-03-25T00:32:18;2.40;;;2.20;;
6292;SDS011;3179;54.350;10.102;2024-03-25T00:34:44;1.70;;;1.60;;
6292;SDS011;3179;54.350;10.102;2024-03-25T00:37:10;1.63;;;1.30;;
6292;SDS011;3179;54.350;10.102;2024-03-25T00:39:36;2.67;;;1.90;;
6292;SDS011;3179;54.350;10.102;2024-03-25T00:42:04;1.43;;;1.33;;
6292;SDS011;3179;54.350;10.102;2024-03-25T00:44:31;2.33;;;1.87;;
6292;SDS011;3179;54.350;10.102;2024-03-25T00:46:58;1.83;;;1.53;;
6292;SDS011;3179;54.350;10.102;2024-03-25T00:49:23;1.60;;;1.50;;
6292;SDS011;3179;54.350;10.102;2024-03-25T00:51:50;1.57;;;1.30;;
6292;SDS011;3179;54.350;10.102;2024-03-25T00:54:17;1.53;;;1.43;;
6292;SDS011;3179;54.350;10.102;2024-03-25T00:56:44;2.47;;;1.70;;
6292;SDS011;3179;54.350;10.102;2024-03-25T00:59:11;1.73;;;1.63;;
6292;SDS011;3179;54.350;10.102;2024-03-25T01:01:40;4.67;;;2.00;;
6292;SDS011;3179;54.350;10.102;2024-03-25T01:04:05;2.67;;;1.90;;
6292;SDS011;3179;54.350;10.102;2024-03-25T01:06:32;4.23;;;2.20;;
6292;SDS011;3179;54.350;10.102;2024-03-25T01:08:58;2.20;;;1.80;;
6292;SDS011;3179;54.350;10.102;2024-03-25T01:11:25;2.93;;;1.93;;
6292;SDS011;3179;54.350;10.102;2024-03-25T01:13:51;2.67;;;2.47;;
6292;SDS011;3179;54.350;10.102;2024-03-25T01:16:18;2.53;;;1.80;;
6292;SDS011;3179;54.350;10.102;2024-03-25T01:18:45;2.60;;;2.20;;
6292;SDS011;3179;54.350;10.102;2024-03-25T01:21:12;3.50;;;2.37;;
6292;SDS011;3179;54.350;10.102;2024-03-25T01:23:38;5.80;;;2.00;;
6292;SDS011;3179;54.350;10.102;2024-03-25T01:26:05;2.00;;;1.90;;
6292;SDS011;3179;54.350;10.102;2024-03-25T01:28:31;3.53;;;2.70;;
6292;SDS011;3179;54.350;10.102;2024-03-25T01:30:58;4.53;;;2.93;;
6292;SDS011;3179;54.350;10.102;2024-03-25T01:33:24;2.47;;;2.20;;
6292;SDS011;3179;54.350;10.102;2024-03-25T01:35:52;3.80;;;3.03;;
6292;SDS011;3179;54.350;10.102;2024-03-25T01:38:20;2.93;;;2.73;;
6292;SDS011;3179;54.350;10.102;2024-03-25T01:40:47;3.57;;;2.73;;
6292;SDS011;3179;54.350;10.102;2024-03-25T01:43:13;4.57;;;2.77;;
6292;SDS011;3179;54.350;10.102;2024-03-25T01:45:40;3.30;;;2.37;;
6292;SDS011;3179;54.350;10.102;2024-03-25T01:48:07;3.13;;;2.80;;
6292;SDS011;3179;54.350;10.102;2024-03-25T01:50:36;6.33;;;2.87;;
6292;SDS011;3179;54.350;10.102;2024-03-25T01:53:06;2.77;;;2.57;;
6292;SDS011;3179;54.350;10.102;2024-03-25T01:55:34;5.17;;;2.30;;
6292;SDS011;3179;54.350;10.102;2024-03-25T01:58:01;3.70;;;2.80;;
6292;SDS011;3179;54.350;10.102;2024-03-25T02:00:31;2.27;;;2.07;;
6292;SDS011;3179;54.350;10.102;2024-03-25T02:02:57;5.10;;;2.60;;
6292;SDS011;3179;54.350;10.102;2024-03-25T02:05:24;2.90;;;2.60;;
6292;SDS011;3179;54.350;10.102;2024-03-25T02:07:51;3.40;;;2.67;;
6292;SDS011;3179;54.350;10.102;2024-03-25T02:10:19;2.93;;;2.67;;
6292;SDS011;3179;54.350;10.102;2024-03-25T02:12:46;3.37;;;2.40;;
6292;SDS011;3179;54.350;10.102;2024-03-25T02:15:14;3.53;;;2.70;;
6292;SDS011;3179;54.350;10.102;2024-03-25T02:17:39;3.80;;;2.93;;
6292;SDS011;3179;54.350;10.102;2024-03-25T02:20:07;5.80;;;2.90;;
6292;SDS011;3179;54.350;10.102;2024-03-25T02:22:34;7.20;;;2.77;;
6292;SDS011;3179;54.350;10.102;2024-03-25T02:25:03;3.57;;;2.70;;
6292;SDS011;3179;54.350;10.102;2024-03-25T02:27:33;3.23;;;2.00;;
6292;SDS011;3179;54.350;10.102;2024-03-25T02:30:04;4.73;;;3.00;;
6292;SDS011;3179;54.350;10.102;2024-03-25T02:32:31;3.73;;;2.53;;
6292;SDS011;3179;54.350;10.102;2024-03-25T02:34:58;5.57;;;3.00;;
6292;SDS011;3179;54.350;10.102;2024-03-25T02:37:24;4.67;;;2.87;;
6292;SDS011;3179;54.350;10.102;2024-03-25T02:39:51;4.03;;;2.67;;
6292;SDS011;3179;54.350;10.102;2024-03-25T02:42:20;5.13;;;2.77;;
6292;SDS011;3179;54.350;10.102;2024-03-25T02:44:48;3.17;;;2.80;;
6292;SDS011;3179;54.350;10.102;2024-03-25T02:47:15;7.37;;;2.97;;
6292;SDS011;3179;54.350;10.102;2024-03-25T02:49:42;4.20;;;2.50;;
6292;SDS011;3179;54.350;10.102;2024-03-25T02:52:08;5.70;;;2.80;;
6292;SDS011;3179;54.350;10.102;2024-03-25T02:54:35;3.70;;;3.20;;
6292;SDS011;3179;54.350;10.102;2024-03-25T02:57:01;6.00;;;3.70;;
6292;SDS011;3179;54.350;10.102;2024-03-25T02:59:28;4.77;;;2.87;;
6292;SDS011;3179;54.350;10.102;2024-03-25T03:01:55;5.33;;;3.20;;
6292;SDS011;3179;54.350;10.102;2024-03-25T03:04:22;4.23;;;2.53;;
6292;SDS011;3179;54.350;10.102;2024-03-25T03:06:48;4.03;;;3.40;;
6292;SDS011;3179;54.350;10.102;2024-03-25T03:09:15;6.60;;;3.50;;
6292;SDS011;3179;54.350;10.102;2024-03-25T03:11:40;10.17;;;3.63;;
6292;SDS011;3179;54.350;10.102;2024-03-25T03:14:08;6.67;;;3.57;;
6292;SDS011;3179;54.350;10.102;2024-03-25T03:16:34;3.90;;;3.20;;
6292;SDS011;3179;54.350;10.102;2024-03-25T03:19:02;5.60;;;3.20;;
6292;SDS011;3179;54.350;10.102;2024-03-25T03:21:28;7.40;;;3.10;;
6292;SDS011;3179;54.350;10.102;2024-03-25T03:23:56;5.00;;;3.10;;
6292;SDS011;3179;54.350;10.102;2024-03-25T03:26:22;4.93;;;3.07;;
6292;SDS011;3179;54.350;10.102;2024-03-25T03:28:51;5.63;;;2.77;;
6292;SDS011;3179;54.350;10.102;2024-03-25T03:31:17;5.77;;;3.17;;
6292;SDS011;3179;54.350;10.102;2024-03-25T03:33:46;3.00;;;2.23;;
6292;SDS011;3179;54.350;10.102;2024-03-25T03:36:13;6.33;;;2.33;;
6292;SDS011;3179;54.350;10.102;2024-03-25T03:38:41;3.20;;;2.27;;
6292;SDS011;3179;54.350;10.102;2024-03-25T03:41:07;4.70;;;2.77;;
6292;SDS011;3179;54.350;10.102;2024-03-25T03:43:35;5.07;;;2.40;;
6292;SDS011;3179;54.350;10.102;2024-03-25T03:46:00;8.40;;;2.70;;
6292;SDS011;3179;54.350;10.102;2024-03-25T03:48:28;4.50;;;2.37;;
6292;SDS011;3179;54.350;10.102;2024-03-25T03:50:54;4.63;;;2.93;;
6292;SDS011;3179;54.350;10.102;2024-03-25T03:53:22;5.90;;;2.50;;
6292;SDS011;3179;54.350;10.102;2024-03-25T03:55:54;3.17;;;2.57;;
6292;SDS011;3179;54.350;10.102;2024-03-25T03:58:22;6.03;;;2.47;;
6292;SDS011;3179;54.350;10.102;2024-03-25T04:00:48;4.63;;;2.67;;
6292;SDS011;3179;54.350;10.102;2024-03-25T04:03:15;3.40;;;2.67;;
6292;SDS011;3179;54.350;10.102;2024-03-25T04:05:41;5.07;;;2.30;;
6292;SDS011;3179;54.350;10.102;2024-03-25T04:08:08;6.57;;;2.57;;
6292;SDS011;3179;54.350;10.102;2024-03-25T04:10:35;2.83;;;2.40;;
6292;SDS011;3179;54.350;10.102;2024-03-25T04:13:03;2.30;;;2.10;;
6292;SDS011;3179;54.350;10.102;2024-03-25T04:15:29;2.00;;;1.90;;
6292;SDS011;3179;54.350;10.102;2024-03-25T04:17:58;3.67;;;2.03;;
6292;SDS011;3179;54.350;10.102;2024-03-25T04:20:25;2.90;;;2.23;;
6292;SDS011;3179;54.350;10.102;2024-03-25T04:22:52;4.40;;;2.40;;
6292;SDS011;3179;54.350;10.102;2024-03-25T04:25:18;6.50;;;2.00;;
6292;SDS011;3179;54.350;10.102;2024-03-25T04:27:47;2.47;;;1.90;;
6292;SDS011;3179;54.350;10.102;2024-03-25T04:30:13;1.97;;;1.87;;
6292;SDS011;3179;54.350;10.102;2024-03-25T04:32:41;4.00;;;2.07;;
6292;SDS011;3179;54.350;10.102;2024-03-25T04:35:08;6.87;;;2.80;;
6292;SDS011;3179;54.350;10.102;2024-03-25T04:37:35;3.83;;;2.00;;
6292;SDS011;3179;54.350;10.102;2024-03-25T04:40:01;3.10;;;1.67;;
6292;SDS011;3179;54.350;10.102;2024-03-25T04:42:27;8.07;;;1.70;;
6292;SDS011;3179;54.350;10.102;2024-03-25T04:44:55;4.40;;;1.80;;
6292;SDS011;3179;54.350;10.102;2024-03-25T04:47:20;1.67;;;1.33;;
6292;SDS011;3179;54.350;10.102;2024-03-25T04:49:46;1.80;;;1.70;;
6292;SDS011;3179;54.350;10.102;2024-03-25T04:52:12;2.80;;;2.13;;
6292;SDS011;3179;54.350;10.102;2024-03-25T04:54:40;6.70;;;1.40;;
6292;SDS011;3179;54.350;10.102;2024-03-25T04:57:06;2.00;;;1.80;;
6292;SDS011;3179;54.350;10.102;2024-03-25T04:59:32;4.30;;;1.70;;
6292;SDS011;3179;54.350;10.102;2024-03-25T05:01:59;2.10;;;1.77;;
6292;SDS011;3179;54.350;10.102;2024-03-25T05:04:25;2.87;;;1.73;;
6292;SDS011;3179;54.350;10.102;2024-03-25T05:06:51;2.60;;;1.67;;
6292;SDS011;3179;54.350;10.102;2024-03-25T05:09:17;3.40;;;1.50;;
6292;SDS011;3179;54.350;10.102;2024-03-25T05:11:43;2.73;;;1.60;;
6292;SDS011;3179;54.350;10.102;2024-03-25T05:14:09;1.77;;;1.53;;
6292;SDS011;3179;54.350;10.102;2024-03-25T05:16:35;3.60;;;1.97;;
6292;SDS011;3179;54.350;10.102;2024-03-25T05:19:03;2.33;;;1.50;;
6292;SDS011;3179;54.350;10.102;2024-03-25T05:21:29;1.83;;;1.70;;
6292;SDS011;3179;54.350;10.102;2024-03-25T05:23:55;2.10;;;1.90;;
6292;SDS011;3179;54.350;10.102;2024-03-25T05:26:21;5.47;;;2.07;;
6292;SDS011;3179;54.350;10.102;2024-03-25T05:28:51;2.43;;;1.90;;
6292;SDS011;3179;54.350;10.102;2024-03-25T05:31:18;2.90;;;2.53;;
6292;SDS011;3179;54.350;10.102;2024-03-25T05:33:43;2.37;;;1.80;;
6292;SDS011;3179;54.350;10.102;2024-03-25T05:36:11;1.60;;;1.50;;
6292;SDS011;3179;54.350;10.102;2024-03-25T05:38:37;2.20;;;1.83;;
6292;SDS011;3179;54.350;10.102;2024-03-25T05:41:03;2.10;;;1.83;;
6292;SDS011;3179;54.350;10.102;2024-03-25T05:43:29;2.87;;;2.10;;
6292;SDS011;3179;54.350;10.102;2024-03-25T05:45:56;3.70;;;1.67;;
6292;SDS011;3179;54.350;10.102;2024-03-25T05:48:23;4.23;;;2.27;;
6292;SDS011;3179;54.350;10.102;2024-03-25T05:50:56;1.80;;;1.70;;
6292;SDS011;3179;54.350;10.102;2024-03-25T05:53:25;3.17;;;1.80;;
6292;SDS011;3179;54.350;10.102;2024-03-25T05:55:51;1.83;;;1.57;;
6292;SDS011;3179;54.350;10.102;2024-03-25T05:58:17;3.97;;;2.40;;
6292;SDS011;3179;54.350;10.102;2024-03-25T06:00:43;1.90;;;1.80;;
6292;SDS011;3179;54.350;10.102;2024-03-25T06:03:11;1.63;;;1.17;;
6292;SDS011;3179;54.350;10.102;2024-03-25T06:05:37;2.47;;;2.27;;
6292;SDS011;3179;54.350;10.102;2024-03-25T06:08:03;3.10;;;1.70;;
6292;SDS011;3179;54.350;10.102;2024-03-25T06:10:34;2.03;;;1.83;;
6292;SDS011;3179;54.350;10.102;2024-03-25T06:13:01;4.23;;;2.10;;
6292;SDS011;3179;54.350;10.102;2024-03-25T06:15:27;3.33;;;2.03;;
6292;SDS011;3179;54.350;10.102;2024-03-25T06:17:52;3.13;;;1.77;;
6292;SDS011;3179;54.350;10.102;2024-03-25T06:20:18;1.73;;;1.60;;
6292;SDS011;3179;54.350;10.102;2024-03-25T06:22:44;3.70;;;1.60;;
6292;SDS011;3179;54.350;10.102;2024-03-25T06:25:10;6.03;;;2.03;;
6292;SDS011;3179;54.350;10.102;2024-03-25T06:27:38;2.53;;;1.30;;
6292;SDS011;3179;54.350;10.102;2024-03-25T06:30:04;2.47;;;1.70;;
6292;SDS011;3179;54.350;10.102;2024-03-25T06:32:45;1.60;;;1.50;;
6292;SDS011;3179;54.350;10.102;2024-03-25T06:35:29;2.40;;;1.73;;
6292;SDS011;3179;54.350;10.102;2024-03-25T06:37:55;6.00;;;1.93;;
6292;SDS011;3179;54.350;10.102;2024-03-25T06:40:21;2.23;;;1.57;;
6292;SDS011;3179;54.350;10.102;2024-03-25T06:42:48;2.57;;;1.80;;
6292;SDS011;3179;54.350;10.102;2024-03-25T06:45:14;3.63;;;1.77;;
6292;SDS011;3179;54.350;10.102;2024-03-25T06:47:40;2.70;;;1.63;;
6292;SDS011;3179;54.350;10.102;2024-03-25T06:50:06;4.63;;;1.70;;
6292;SDS011;3179;54.350;10.102;2024-03-25T06:52:33;3.13;;;1.43;;
6292;SDS011;3179;54.350;10.102;2024-03-25T06:54:58;2.30;;;1.70;;
6292;SDS011;3179;54.350;10.102;2024-03-25T06:57:24;1.83;;;1.63;;
6292;SDS011;3179;54.350;10.102;2024-03-25T06:59:52;2.83;;;1.30;;
6292;SDS011;3179;54.350;10.102;2024-03-25T07:02:17;3.93;;;1.23;;
6292;SDS011;3179;54.350;10.102;2024-03-25T07:04:43;2.07;;;1.30;;
6292;SDS011;3179;54.350;10.102;2024-03-25T07:07:09;3.57;;;1.40;;
6292;SDS011;3179;54.350;10.102;2024-03-25T07:09:35;3.43;;;1.80;;
6292;SDS011;3179;54.350;10.102;2024-03-25T07:12:01;3.37;;;1.60;;
6292;SDS011;3179;54.350;10.102;2024-03-25T07:14:27;2.13;;;1.67;;
6292;SDS011;3179;54.350;10.102;2024-03-25T07:16:54;2.30;;;1.13;;
6292;SDS011;3179;54.350;10.102;2024-03-25T07:19:20;3.97;;;1.50;;
6292;SDS011;3179;54.350;10.102;2024-03-25T07:21:46;5.27;;;1.20;;
6292;SDS011;3179;54.350;10.102;2024-03-25T07:24:12;3.17;;;1.47;;
6292;SDS011;3179;54.350;10.102;2024-03-25T07:26:38;3.40;;;1.60;;
6292;SDS011;3179;54.350;10.102;2024-03-25T07:29:04;4.23;;;1.30;;
6292;SDS011;3179;54.350;10.102;2024-03-25T07:31:30;2.30;;;1.53;;
6292;SDS011;3179;54.350;10.102;2024-03-25T07:33:57;1.13;;;1.00;;
6292;SDS011;3179;54.350;10.102;2024-03-25T07:36:23;7.23;;;1.10;;
6292;SDS011;3179;54.350;10.102;2024-03-25T07:38:49;1.20;;;1.10;;
6292;SDS011;3179;54.350;10.102;2024-03-25T07:41:15;1.10;;;1.00;;
6292;SDS011;3179;54.350;10.102;2024-03-25T07:43:41;2.37;;;1.30;;
6292;SDS011;3179;54.350;10.102;2024-03-25T07:46:07;3.03;;;1.00;;
6292;SDS011;3179;54.350;10.102;2024-03-25T07:48:33;1.00;;;0.90;;
6292;SDS011;3179;54.350;10.102;2024-03-25T07:51:00;3.17;;;1.20;;
6292;SDS011;3179;54.350;10.102;2024-03-25T07:53:26;2.87;;;1.53;;
6292;SDS011;3179;54.350;10.102;2024-03-25T07:55:52;3.43;;;1.20;;
6292;SDS011;3179;54.350;10.102;2024-03-25T07:58:18;3.50;;;1.40;;
6292;SDS011;3179;54.350;10.102;2024-03-25T08:00:44;5.07;;;1.50;;
6292;SDS011;3179;54.350;10.102;2024-03-25T08:03:09;2.07;;;0.90;;
6292;SDS011;3179;54.350;10.102;2024-03-25T08:05:35;5.43;;;1.50;;
6292;SDS011;3179;54.350;10.102;2024-03-25T08:08:03;8.40;;;1.80;;
6292;SDS011;3179;54.350;10.102;2024-03-25T08:10:29;4.10;;;1.33;;
6292;SDS011;3179;54.350;10.102;2024-03-25T08:12:55;4.43;;;1.57;;
6292;SDS011;3179;54.350;10.102;2024-03-25T08:15:21;4.00;;;1.00;;
6292;SDS011;3179;54.350;10.102;2024-03-25T08:17:47;4.87;;;1.60;;
6292;SDS011;3179;54.350;10.102;2024-03-25T08:20:13;3.60;;;1.60;;
6292;SDS011;3179;54.350;10.102;2024-03-25T08:22:39;4.60;;;1.40;;
6292;SDS011;3179;54.350;10.102;2024-03-25T08:25:07;4.87;;;1.53;;
6292;SDS011;3179;54.350;10.102;2024-03-25T08:27:33;3.90;;;1.50;;
6292;SDS011;3179;54.350;10.102;2024-03-25T08:29:59;3.83;;;1.30;;
6292;SDS011;3179;54.350;10.102;2024-03-25T08:32:25;5.07;;;2.57;;
6292;SDS011;3179;54.350;10.102;2024-03-25T08:34:51;7.17;;;4.03;;
6292;SDS011;3179;54.350;10.102;2024-03-25T08:37:16;7.33;;;2.43;;
6292;SDS011;3179;54.350;10.102;2024-03-25T08:39:42;5.87;;;2.60;;
6292;SDS011;3179;54.350;10.102;2024-03-25T08:42:10;8.93;;;1.77;;
6292;SDS011;3179;54.350;10.102;2024-03-25T08:44:35;9.53;;;1.70;;
6292;SDS011;3179;54.350;10.102;2024-03-25T08:47:01;4.00;;;1.63;;
6292;SDS011;3179;54.350;10.102;2024-03-25T08:49:27;3.10;;;1.27;;
6292;SDS011;3179;54.350;10.102;2024-03-25T08:51:53;2.50;;;1.13;;
6292;SDS011;3179;54.350;10.102;2024-03-25T08:54:19;3.07;;;1.30;;
6292;SDS011;3179;54.350;10.102;2024-03-25T08:56:45;3.93;;;0.93;;
6292;SDS011;3179;54.350;10.102;2024-03-25T08:59:12;2.67;;;1.37;;
6292;SDS011;3179;54.350;10.102;2024-03-25T09:01:38;8.73;;;1.67;;
6292;SDS011;3179;54.350;10.102;2024-03-25T09:04:04;3.17;;;1.60;;
6292;SDS011;3179;54.350;10.102;2024-03-25T09:06:30;4.37;;;1.70;;
6292;SDS011;3179;54.350;10.102;2024-03-25T09:08:56;6.63;;;1.63;;
6292;SDS011;3179;54.350;10.102;2024-03-25T09:11:40;4.00;;;1.40;;
6292;SDS011;3179;54.350;10.102;2024-03-25T09:14:06;4.53;;;1.40;;
6292;SDS011;3179;54.350;10.102;2024-03-25T09:16:33;4.87;;;1.53;;
6292;SDS011;3179;54.350;10.102;2024-03-25T09:18:59;2.97;;;1.20;;
6292;SDS011;3179;54.350;10.102;2024-03-25T09:21:25;2.30;;;1.20;;
6292;SDS011;3179;54.350;10.102;2024-03-25T09:23:51;5.40;;;1.37;;
6292;SDS011;3179;54.350;10.102;2024-03-25T09:26:17;4.97;;;1.03;;
6292;SDS011;3179;54.350;10.102;2024-03-25T09:28:43;3.90;;;1.47;;
6292;SDS011;3179;54.350;10.102;2024-03-25T09:31:09;2.50;;;1.17;;
6292;SDS011;3179;54.350;10.102;2024-03-25T09:33:36;4.37;;;1.33;;
6292;SDS011;3179;54.350;10.102;2024-03-25T09:36:02;2.97;;;1.30;;
6292;SDS011;3179;54.350;10.102;2024-03-25T09:38:28;3.80;;;0.93;;
6292;SDS011;3179;54.350;10.102;2024-03-25T09:40:54;2.60;;;1.30;;
6292;SDS011;3179;54.350;10.102;2024-03-25T09:43:24;3.60;;;1.13;;
6292;SDS011;3179;54.350;10.102;2024-03-25T09:45:55;3.67;;;1.43;;
6292;SDS011;3179;54.350;10.102;2024-03-25T09:48:23;4.00;;;1.63;;
6292;SDS011;3179;54.350;10.102;2024-03-25T09:50:50;6.03;;;1.83;;
6292;SDS011;3179;54.350;10.102;2024-03-25T09:53:18;5.07;;;1.73;;
6292;SDS011;3179;54.350;10.102;2024-03-25T09:55:44;3.23;;;1.20;;
6292;SDS011;3179;54.350;10.102;2024-03-25T09:58:12;4.93;;;1.80;;
6292;SDS011;3179;54.350;10.102;2024-03-25T10:00:40;5.83;;;1.63;;
6292;SDS011;3179;54.350;10.102;2024-03-25T10:03:06;4.03;;;1.63;;
6292;SDS011;3179;54.350;10.102;2024-03-25T10:05:32;3.40;;;1.53;;
6292;SDS011;3179;54.350;10.102;2024-03-25T10:08:00;3.57;;;1.13;;
6292;SDS011;3179;54.350;10.102;2024-03-25T10:10:26;3.43;;;1.30;;
6292;SDS011;3179;54.350;10.102;2024-03-25T10:12:54;5.20;;;1.87;;
6292;SDS011;3179;54.350;10.102;2024-03-25T10:15:20;5.80;;;1.70;;
6292;SDS011;3179;54.350;10.102;2024-03-25T10:17:48;4.73;;;1.80;;
6292;SDS011;3179;54.350;10.102;2024-03-25T10:20:15;5.10;;;1.93;;
6292;SDS011;3179;54.350;10.102;2024-03-25T10:22:41;2.20;;;1.47;;
6292;SDS011;3179;54.350;10.102;2024-03-25T10:25:18;3.57;;;1.33;;
6292;SDS011;3179;54.350;10.102;2024-03-25T10:27:52;6.23;;;2.53;;
6292;SDS011;3179;54.350;10.102;2024-03-25T10:30:19;4.87;;;1.80;;
6292;SDS011;3179;54.350;10.102;2024-03-25T10:32:45;4.80;;;1.80;;
6292;SDS011;3179;54.350;10.102;2024-03-25T10:35:11;4.50;;;1.50;;
6292;SDS011;3179;54.350;10.102;2024-03-25T10:37:38;8.40;;;1.90;;
6292;SDS011;3179;54.350;10.102;2024-03-25T10:40:05;9.67;;;2.20;;
6292;SDS011;3179;54.350;10.102;2024-03-25T10:42:36;5.80;;;1.70;;
6292;SDS011;3179;54.350;10.102;2024-03-25T10:45:07;3.83;;;2.07;;
6292;SDS011;3179;54.350;10.102;2024-03-25T10:47:35;8.70;;;2.30;;
6292;SDS011;3179;54.350;10.102;2024-03-25T10:50:03;5.70;;;1.77;;
6292;SDS011;3179;54.350;10.102;2024-03-25T10:52:34;7.30;;;2.20;;
6292;SDS011;3179;54.350;10.102;2024-03-25T10:55:01;3.90;;;2.10;;
6292;SDS011;3179;54.350;10.102;2024-03-25T10:57:30;10.40;;;2.20;;
6292;SDS011;3179;54.350;10.102;2024-03-25T10:59:56;7.03;;;2.00;;
6292;SDS011;3179;54.350;10.102;2024-03-25T11:02:22;7.87;;;2.00;;
6292;SDS011;3179;54.350;10.102;2024-03-25T11:04:49;8.23;;;2.00;;
6292;SDS011;3179;54.350;10.102;2024-03-25T11:07:16;4.97;;;2.17;;
6292;SDS011;3179;54.350;10.102;2024-03-25T11:09:42;8.73;;;2.00;;
6292;SDS011;3179;54.350;10.102;2024-03-25T11:12:09;7.77;;;1.67;;
6292;SDS011;3179;54.350;10.102;2024-03-25T11:14:37;12.33;;;1.97;;
6292;SDS011;3179;54.350;10.102;2024-03-25T11:17:13;10.30;;;1.77;;
6292;SDS011;3179;54.350;10.102;2024-03-25T11:19:40;6.40;;;1.73;;
6292;SDS011;3179;54.350;10.102;2024-03-25T11:22:07;4.80;;;1.00;;
6292;SDS011;3179;54.350;10.102;2024-03-25T11:24:34;2.10;;;1.33;;
6292;SDS011;3179;54.350;10.102;2024-03-25T11:27:01;4.53;;;1.60;;
6292;SDS011;3179;54.350;10.102;2024-03-25T11:29:27;3.70;;;1.50;;
6292;SDS011;3179;54.350;10.102;2024-03-25T11:31:54;4.07;;;1.30;;
6292;SDS011;3179;54.350;10.102;2024-03-25T11:34:23;3.60;;;1.53;;
6292;SDS011;3179;54.350;10.102;2024-03-25T11:36:49;7.50;;;1.50;;
6292;SDS011;3179;54.350;10.102;2024-03-25T11:39:15;8.60;;;1.87;;
6292;SDS011;3179;54.350;10.102;2024-03-25T11:41:42;2.60;;;1.27;;
6292;SDS011;3179;54.350;10.102;2024-03-25T11:44:08;3.50;;;1.33;;
6292;SDS011;3179;54.350;10.102;2024-03-25T11:46:35;4.93;;;1.30;;
6292;SDS011;3179;54.350;10.102;2024-03-25T11:49:03;4.80;;;1.40;;
6292;SDS011;3179;54.350;10.102;2024-03-25T11:51:31;1.47;;;0.90;;
6292;SDS011;3179;54.350;10.102;2024-03-25T11:53:57;1.70;;;1.40;;
6292;SDS011;3179;54.350;10.102;2024-03-25T11:56:23;5.03;;;1.33;;
6292;SDS011;3179;54.350;10.102;2024-03-25T11:58:49;3.20;;;1.20;;
6292;SDS011;3179;54.350;10.102;2024-03-25T12:01:15;3.27;;;1.20;;
6292;SDS011;3179;54.350;10.102;2024-03-25T12:03:41;4.80;;;1.37;;
6292;SDS011;3179;54.350;10.102;2024-03-25T12:06:09;7.63;;;1.43;;
6292;SDS011;3179;54.350;10.102;2024-03-25T12:08:35;4.07;;;1.30;;
6292;SDS011;3179;54.350;10.102;2024-03-25T12:11:01;2.20;;;1.33;;
6292;SDS011;3179;54.350;10.102;2024-03-25T12:13:42;7.80;;;1.47;;
6292;SDS011;3179;54.350;10.102;2024-03-25T12:16:09;3.00;;;1.20;;
6292;SDS011;3179;54.350;10.102;2024-03-25T12:18:35;3.50;;;1.40;;
6292;SDS011;3179;54.350;10.102;2024-03-25T12:21:01;5.10;;;2.00;;
6292;SDS011;3179;54.350;10.102;2024-03-25T12:23:31;5.93;;;1.90;;
6292;SDS011;3179;54.350;10.102;2024-03-25T12:25:58;2.33;;;1.13;;
6292;SDS011;3179;54.350;10.102;2024-03-25T12:28:24;5.10;;;1.40;;
6292;SDS011;3179;54.350;10.102;2024-03-25T12:30:51;6.93;;;1.40;;
6292;SDS011;3179;54.350;10.102;2024-03-25T12:33:18;3.60;;;1.23;;
6292;SDS011;3179;54.350;10.102;2024-03-25T12:35:45;3.97;;;1.50;;
6292;SDS011;3179;54.350;10.102;2024-03-25T12:38:21;3.40;;;1.40;;
6292;SDS011;3179;54.350;10.102;2024-03-25T12:40:51;4.60;;;1.40;;
6292;SDS011;3179;54.350;10.102;2024-03-25T12:43:18;5.33;;;1.50;;
6292;SDS011;3179;54.350;10.102;2024-03-25T12:45:44;4.83;;;1.73;;
6292;SDS011;3179;54.350;10.102;2024-03-25T12:48:10;2.10;;;1.07;;
6292;SDS011;3179;54.350;10.102;2024-03-25T12:50:36;2.50;;;1.00;;
6292;SDS011;3179;54.350;10.102;2024-03-25T12:53:02;2.80;;;1.00;;
6292;SDS011;3179;54.350;10.102;2024-03-25T12:55:29;4.17;;;1.20;;
6292;SDS011;3179;54.350;10.102;2024-03-25T12:57:56;3.10;;;1.13;;
6292;SDS011;3179;54.350;10.102;2024-03-25T13:00:22;3.77;;;1.53;;
6292;SDS011;3179;54.350;10.102;2024-03-25T13:02:48;3.03;;;1.30;;
6292;SDS011;3179;54.350;10.102;2024-03-25T13:05:15;4.13;;;1.33;;
6292;SDS011;3179;54.350;10.102;2024-03-25T13:07:41;2.63;;;1.20;;
6292;SDS011;3179;54.350;10.102;2024-03-25T13:10:06;3.00;;;1.03;;
6292;SDS011;3179;54.350;10.102;2024-03-25T13:12:33;2.13;;;1.20;;
6292;SDS011;3179;54.350;10.102;2024-03-25T13:15:00;3.27;;;1.37;;
6292;SDS011;3179;54.350;10.102;2024-03-25T13:17:26;4.47;;;1.50;;
6292;SDS011;3179;54.350;10.102;2024-03-25T13:19:52;3.97;;;2.00;;
6292;SDS011;3179;54.350;10.102;2024-03-25T13:22:18;3.33;;;1.30;;
6292;SDS011;3179;54.350;10.102;2024-03-25T13:24:44;6.70;;;1.97;;
6292;SDS011;3179;54.350;10.102;2024-03-25T13:27:09;3.40;;;1.30;;
6292;SDS011;3179;54.350;10.102;2024-03-25T13:29:35;3.60;;;1.30;;
6292;SDS011;3179;54.350;10.102;2024-03-25T13:32:03;4.63;;;1.50;;
6292;SDS011;3179;54.350;10.102;2024-03-25T13:34:29;4.73;;;1.50;;
6292;SDS011;3179;54.350;10.102;2024-03-25T13:36:55;4.00;;;1.60;;
6292;SDS011;3179;54.350;10.102;2024-03-25T13:39:21;4.60;;;1.90;;
6292;SDS011;3179;54.350;10.102;2024-03-25T13:41:47;4.80;;;1.70;;
6292;SDS011;3179;54.350;10.102;2024-03-25T13:44:13;6.07;;;1.50;;
6292;SDS011;3179;54.350;10.102;2024-03-25T13:46:39;5.87;;;1.33;;
6292;SDS011;3179;54.350;10.102;2024-03-25T13:49:06;2.43;;;1.30;;
6292;SDS011;3179;54.350;10.102;2024-03-25T13:51:32;5.03;;;1.60;;
6292;SDS011;3179;54.350;10.102;2024-03-25T13:53:58;7.17;;;1.97;;
6292;SDS011;3179;54.350;10.102;2024-03-25T13:56:24;5.00;;;1.70;;
6292;SDS011;3179;54.350;10.102;2024-03-25T13:58:50;4.97;;;1.70;;
6292;SDS011;3179;54.350;10.102;2024-03-25T14:01:16;6.40;;;1.70;;
6292;SDS011;3179;54.350;10.102;2024-03-25T14:03:42;9.20;;;1.93;;
6292;SDS011;3179;54.350;10.102;2024-03-25T14:06:09;4.20;;;1.50;;
6292;SDS011;3179;54.350;10.102;2024-03-25T14:08:35;5.97;;;1.53;;
6292;SDS011;3179;54.350;10.102;2024-03-25T14:11:02;5.33;;;1.83;;
6292;SDS011;3179;54.350;10.102;2024-03-25T14:13:28;3.90;;;1.37;;
6292;SDS011;3179;54.350;10.102;2024-03-25T14:15:54;1.53;;;0.90;;
6292;SDS011;3179;54.350;10.102;2024-03-25T14:18:20;6.60;;;1.57;;
6292;SDS011;3179;54.350;10.102;2024-03-25T14:20:46;3.50;;;0.90;;
6292;SDS011;3179;54.350;10.102;2024-03-25T14:23:13;3.50;;;1.00;;
6292;SDS011;3179;54.350;10.102;2024-03-25T14:25:40;2.50;;;1.10;;
6292;SDS011;3179;54.350;10.102;2024-03-25T14:28:06;3.93;;;1.30;;
6292;SDS011;3179;54.350;10.102;2024-03-25T14:30:31;4.50;;;1.30;;
6292;SDS011;3179;54.350;10.102;2024-03-25T14:32:57;4.37;;;1.43;;
6292;SDS011;3179;54.350;10.102;2024-03-25T14:35:23;4.33;;;1.43;;
6292;SDS011;3179;54.350;10.102;2024-03-25T14:37:49;4.50;;;1.90;;
6292;SDS011;3179;54.350;10.102;2024-03-25T14:40:17;6.30;;;1.97;;
6292;SDS011;3179;54.350;10.102;2024-03-25T14:42:42;3.17;;;1.33;;
6292;SDS011;3179;54.350;10.102;2024-03-25T14:45:08;3.87;;;1.43;;
6292;SDS011;3179;54.350;10.102;2024-03-25T14:47:34;4.80;;;1.33;;
6292;SDS011;3179;54.350;10.102;2024-03-25T14:50:00;5.33;;;1.10;;
6292;SDS011;3179;54.350;10.102;2024-03-25T14:52:26;5.33;;;1.53;;
6292;SDS011;3179;54.350;10.102;2024-03-25T14:54:52;8.70;;;1.47;;
6292;SDS011;3179;54.350;10.102;2024-03-25T14:57:20;5.37;;;2.10;;